createdAt,value
2022-12-02T00:02:35.171Z,32.73
2022-12-02T00:08:05.711Z,33.40
2022-12-02T00:13:35.178Z,33.53
2022-12-02T00:18:57.221Z,31.37
2022-12-02T00:24:19.977Z,32.90
2022-12-02T00:29:41.674Z,30.87
2022-12-02T00:35:03.476Z,34.40
2022-12-02T00:40:25.241Z,33.20
2022-12-02T00:46:05.589Z,32.03
2022-12-02T00:51:27.809Z,32.47
2022-12-02T00:56:49.450Z,31.40
2022-12-02T01:02:11.200Z,32.13
2022-12-02T01:07:32.982Z,30.10
2022-12-02T01:12:54.779Z,35.53
2022-12-02T01:18:17.392Z,30.67
2022-12-02T01:23:39.142Z,31.53
2022-12-02T01:29:01.147Z,33.10
2022-12-02T01:34:22.865Z,36.73
2022-12-02T01:39:44.531Z,31.80
2022-12-02T01:45:08.060Z,31.70
2022-12-02T01:50:31.110Z,32.47
2022-12-02T01:55:52.910Z,34.90
2022-12-02T02:01:30.060Z,32.60
2022-12-02T02:06:52.181Z,32.80
2022-12-02T02:12:13.936Z,37.13
2022-12-02T02:17:36.276Z,36.77
2022-12-02T02:23:06.941Z,32.53
2022-12-02T02:28:28.802Z,33.20
2022-12-02T02:33:50.772Z,32.53
2022-12-02T02:39:12.684Z,31.17
2022-12-02T02:44:34.514Z,41.90
2022-12-02T02:49:56.791Z,33.70
2022-12-02T02:55:21.614Z,35.03
2022-12-02T03:00:46.963Z,34.27
2022-12-02T03:06:10.201Z,36.97
2022-12-02T03:11:33.831Z,33.27
2022-12-02T03:16:57.150Z,32.57
2022-12-02T03:22:19.007Z,32.37
2022-12-02T03:27:40.955Z,29.30
2022-12-02T03:33:02.813Z,33.97
2022-12-02T03:38:25.327Z,32.97
2022-12-02T03:43:47.248Z,35.87
2022-12-02T03:49:09.801Z,38.13
2022-12-02T03:54:31.693Z,33.93
2022-12-02T03:59:53.903Z,33.23
2022-12-02T04:05:15.663Z,31.63
2022-12-02T04:10:37.346Z,36.50
2022-12-02T04:15:59.150Z,32.57
2022-12-02T04:21:21.733Z,31.60
2022-12-02T04:26:44.204Z,31.30
2022-12-02T04:32:05.992Z,45.03
2022-12-02T04:37:27.701Z,34.57
2022-12-02T04:42:49.436Z,35.87
2022-12-02T04:48:11.241Z,32.67
2022-12-02T04:53:32.982Z,39.30
2022-12-02T04:58:54.663Z,35.47
2022-12-02T05:04:16.466Z,31.87
2022-12-02T05:09:38.213Z,32.57
2022-12-02T05:14:59.945Z,38.37
2022-12-02T05:20:21.663Z,37.90
2022-12-02T05:25:43.346Z,33.50
2022-12-02T05:31:05.332Z,33.43
2022-12-02T05:36:27.051Z,39.63
2022-12-02T05:41:49.644Z,35.43
2022-12-02T05:47:16.849Z,36.20
2022-12-02T05:52:38.675Z,40.30
2022-12-02T05:58:02.696Z,35.33
2022-12-02T06:03:25.297Z,38.90
2022-12-02T06:08:47.181Z,36.57
2022-12-02T06:14:21.456Z,38.37
2022-12-02T06:20:05.098Z,40.00
2022-12-02T06:25:29.458Z,34.20
2022-12-02T06:30:58.543Z,36.17
2022-12-02T06:36:26.620Z,34.87
2022-12-02T06:41:49.251Z,36.43
2022-12-02T06:47:32.956Z,38.90
2022-12-02T06:53:07.170Z,43.97
2022-12-02T06:58:33.362Z,33.67
2022-12-02T07:04:10.272Z,33.50
2022-12-02T07:09:40.314Z,37.60
2022-12-02T07:15:31.860Z,40.90
2022-12-02T07:20:53.807Z,39.33
2022-12-02T07:26:15.686Z,39.13
2022-12-02T07:31:38.526Z,41.83
2022-12-02T07:37:00.626Z,40.70
2022-12-02T07:42:22.330Z,40.17
2022-12-02T07:47:44.497Z,45.67
2022-12-02T07:53:06.307Z,42.90
2022-12-02T07:58:48.422Z,49.30
2022-12-02T08:04:09.736Z,44.00
2022-12-02T08:09:31.493Z,42.97
2022-12-02T08:14:53.411Z,48.80
2022-12-02T08:20:15.447Z,45.53
2022-12-02T08:25:37.173Z,44.70
2022-12-02T08:30:58.893Z,46.57
2022-12-02T08:36:21.433Z,42.60
2022-12-02T08:41:43.150Z,41.57
2022-12-02T08:47:04.832Z,43.77
2022-12-02T08:52:26.580Z,44.40
2022-12-02T08:57:48.459Z,41.73
2022-12-02T09:03:10.894Z,45.73
2022-12-02T09:08:32.660Z,40.83
2022-12-02T09:13:54.401Z,38.07
2022-12-02T09:19:16.388Z,35.73
2022-12-02T09:24:38.096Z,36.57
2022-12-02T09:29:59.779Z,35.93
2022-12-02T09:35:21.495Z,30.20
2022-12-02T09:40:45.633Z,30.60
2022-12-02T09:46:09.339Z,26.83
2022-12-02T09:51:33.105Z,26.40
2022-12-02T09:56:54.825Z,26.07
2022-12-02T10:02:35.799Z,26.20
2022-12-02T10:07:59.424Z,23.43
2022-12-02T10:13:24.446Z,20.37
2022-12-02T10:18:47.299Z,22.17
2022-12-02T10:24:09.854Z,22.33
2022-12-02T10:29:32.589Z,22.10
2022-12-02T10:35:07.128Z,20.57
2022-12-02T10:40:29.011Z,28.67
2022-12-02T10:45:57.748Z,24.30
2022-12-02T10:51:21.481Z,18.63
2022-12-02T10:56:43.298Z,18.23
2022-12-02T11:02:34.374Z,16.43
2022-12-02T11:08:19.422Z,19.87
2022-12-02T11:14:12.377Z,14.07
2022-12-02T11:19:34.035Z,13.37
2022-12-02T11:24:55.831Z,13.30
2022-12-02T11:30:17.513Z,12.47
2022-12-02T11:36:17.816Z,13.60
2022-12-02T11:41:48.587Z,13.80
2022-12-02T11:47:22.604Z,12.53
2022-12-02T11:53:01.729Z,11.17
2022-12-02T11:58:32.651Z,15.70
2022-12-02T12:03:54.858Z,12.90
2022-12-02T12:09:18.392Z,13.83
2022-12-02T12:14:56.407Z,12.67
2022-12-02T12:20:18.035Z,11.57
2022-12-02T12:25:44.405Z,11.97
2022-12-02T12:31:07.622Z,11.60
2022-12-02T12:36:29.928Z,10.37
2022-12-02T12:41:59.832Z,11.67
2022-12-02T12:47:22.848Z,7.73
2022-12-02T12:52:44.517Z,9.43
2022-12-02T12:58:06.237Z,8.90
2022-12-02T13:03:28.118Z,6.07
2022-12-02T13:08:49.799Z,6.90
2022-12-02T13:14:11.583Z,7.43
2022-12-02T13:19:33.327Z,6.00
2022-12-02T13:24:55.491Z,6.43
2022-12-02T13:30:19.229Z,7.30
2022-12-02T13:35:41.057Z,7.50
2022-12-02T13:41:02.903Z,9.60
2022-12-02T13:46:24.793Z,7.20
2022-12-02T13:51:46.596Z,6.10
2022-12-02T13:57:08.531Z,8.30
2022-12-02T14:02:30.256Z,7.00
2022-12-02T14:07:52.104Z,6.80
2022-12-02T14:13:19.496Z,6.27
2022-12-02T14:18:42.688Z,7.57
2022-12-02T14:24:04.656Z,5.67
2022-12-02T14:29:26.415Z,7.63
2022-12-02T14:34:48.302Z,7.80
2022-12-02T14:40:10.527Z,6.20
2022-12-02T14:45:32.233Z,7.63
2022-12-02T14:50:54.252Z,7.20
2022-12-02T14:56:15.942Z,6.27
2022-12-02T15:01:37.704Z,7.77
2022-12-02T15:06:59.500Z,7.57
2022-12-02T15:12:21.221Z,6.80
2022-12-02T15:17:42.910Z,6.83
2022-12-02T15:23:05.664Z,6.37
2022-12-02T15:28:27.441Z,7.57
2022-12-02T15:33:49.264Z,8.40
2022-12-02T15:39:11.038Z,8.03
2022-12-02T15:44:32.783Z,10.30
2022-12-02T15:49:55.562Z,12.07
2022-12-02T15:55:17.349Z,8.37
2022-12-02T16:00:39.100Z,9.40
2022-12-02T16:06:00.826Z,9.43
2022-12-02T16:11:22.507Z,9.90
2022-12-02T16:16:44.353Z,8.50
2022-12-02T16:22:06.132Z,7.80
2022-12-02T16:27:27.871Z,15.40
2022-12-02T16:32:49.644Z,16.07
2022-12-02T16:38:11.341Z,13.93
2022-12-02T16:43:33.238Z,13.30
2022-12-02T16:48:54.947Z,13.20
2022-12-02T16:54:16.635Z,16.67
2022-12-02T16:59:38.433Z,13.70
2022-12-02T17:05:00.159Z,14.80
2022-12-02T17:10:22.000Z,13.13
2022-12-02T17:15:43.785Z,13.07
2022-12-02T17:21:05.637Z,11.37
2022-12-02T17:26:27.304Z,13.70
2022-12-02T17:31:49.054Z,14.37
2022-12-02T17:37:10.920Z,11.73
2022-12-02T17:42:32.630Z,9.77
2022-12-02T17:47:54.317Z,8.77
2022-12-02T17:53:16.039Z,10.67
2022-12-02T17:58:37.930Z,11.53
2022-12-02T18:03:59.596Z,11.83
2022-12-02T18:09:21.285Z,10.93
2022-12-02T18:14:43.023Z,8.60
2022-12-02T18:20:05.946Z,8.10
2022-12-02T18:25:27.630Z,8.80
2022-12-02T18:30:49.348Z,8.93
2022-12-02T18:36:11.065Z,9.33
2022-12-02T18:41:32.780Z,6.97
2022-12-02T18:46:54.512Z,7.97
2022-12-02T18:52:19.309Z,10.33
2022-12-02T18:57:41.449Z,8.93
2022-12-02T19:03:03.271Z,8.13
2022-12-02T19:08:25.017Z,7.87
2022-12-02T19:13:46.694Z,6.97
2022-12-02T19:19:08.392Z,7.27
2022-12-02T19:24:30.132Z,6.70
2022-12-02T19:29:53.365Z,10.27
2022-12-02T19:35:15.421Z,11.77
2022-12-02T19:40:44.292Z,10.97
2022-12-02T19:46:06.841Z,17.43
2022-12-02T19:51:28.771Z,11.07
2022-12-02T19:56:50.934Z,10.03
2022-12-02T20:02:12.771Z,8.77
2022-12-02T20:07:34.701Z,9.80
2022-12-02T20:12:56.438Z,14.40
2022-12-02T20:18:19.299Z,33.67
2022-12-02T20:23:41.134Z,13.80
2022-12-02T20:29:03.669Z,9.43
2022-12-02T20:34:29.962Z,6.90
2022-12-02T20:39:54.972Z,6.77
2022-12-02T20:45:16.776Z,8.83
2022-12-02T20:50:41.250Z,7.83
2022-12-02T20:56:03.446Z,8.33
2022-12-02T21:01:25.269Z,6.83
2022-12-02T21:06:47.158Z,7.23
2022-12-02T21:12:09.236Z,8.20
2022-12-02T21:17:31.016Z,10.93
2022-12-02T21:22:53.478Z,9.17
2022-12-02T21:28:15.197Z,10.10
2022-12-02T21:33:37.036Z,10.17
2022-12-02T21:38:58.715Z,9.73
2022-12-02T21:44:20.658Z,8.90
2022-12-02T21:49:48.770Z,9.10
2022-12-02T21:55:11.084Z,11.67
2022-12-02T22:00:32.807Z,12.63
2022-12-02T22:05:54.515Z,15.53
2022-12-02T22:11:16.277Z,17.70
2022-12-02T22:16:38.102Z,17.77
2022-12-02T22:22:00.011Z,21.70
2022-12-02T22:27:21.745Z,19.90
2022-12-02T22:32:44.559Z,21.40
2022-12-02T22:38:06.253Z,22.83
2022-12-02T22:43:28.023Z,21.70
2022-12-02T22:48:49.706Z,24.00
2022-12-02T22:54:11.470Z,22.03
2022-12-02T22:59:34.231Z,24.50
2022-12-02T23:04:56.005Z,23.70
2022-12-02T23:10:17.781Z,25.60
2022-12-02T23:15:39.998Z,25.97
2022-12-02T23:21:02.449Z,29.83
2022-12-02T23:26:24.257Z,26.93
2022-12-02T23:31:46.243Z,29.77
2022-12-02T23:37:08.056Z,28.43
2022-12-02T23:42:32.776Z,28.50
2022-12-02T23:47:58.499Z,28.80
2022-12-02T23:53:20.356Z,24.73
2022-12-02T23:58:46.245Z,26.23
